createdAt,value
2018-11-06T00:01:06.880Z,98868.00
2018-11-06T00:03:41.432Z,98872.00
2018-11-06T00:06:10.984Z,98867.00
2018-11-06T00:08:40.241Z,98865.00
2018-11-06T00:11:10.529Z,98863.00
2018-11-06T00:13:40.394Z,98862.00
2018-11-06T00:16:10.437Z,98870.00
2018-11-06T00:18:40.684Z,98868.00
2018-11-06T00:21:09.885Z,98858.00
2018-11-06T00:23:39.452Z,98861.00
2018-11-06T00:26:08.505Z,98860.00
2018-11-06T00:28:37.620Z,98864.00
2018-11-06T00:31:06.861Z,98860.00
2018-11-06T00:33:36.202Z,98858.00
2018-11-06T00:36:05.581Z,98858.00
2018-11-06T00:38:34.795Z,98862.00
2018-11-06T00:41:04.228Z,98857.00
2018-11-06T00:43:33.440Z,98863.00
2018-11-06T00:46:02.981Z,98862.00
2018-11-06T00:48:33.492Z,98865.00
2018-11-06T00:51:02.655Z,98863.00
2018-11-06T00:53:31.744Z,98854.00
2018-11-06T00:56:00.913Z,98859.00
2018-11-06T00:58:30.017Z,98855.00
2018-11-06T01:00:59.840Z,98852.00
2018-11-06T01:03:34.240Z,98849.00
2018-11-06T01:06:03.489Z,98841.00
2018-11-06T01:08:32.661Z,98841.00
2018-11-06T01:11:01.834Z,98847.00
2018-11-06T01:13:31.572Z,98848.00
2018-11-06T01:16:00.697Z,98850.00
2018-11-06T01:18:29.948Z,98838.00
2018-11-06T01:20:59.254Z,98841.00
2018-11-06T01:23:28.473Z,98841.00
2018-11-06T01:25:57.664Z,98835.00
2018-11-06T01:28:26.811Z,98833.00
2018-11-06T01:30:55.988Z,98830.00
2018-11-06T01:33:25.129Z,98832.00
2018-11-06T01:35:54.328Z,98829.00
2018-11-06T01:38:23.930Z,98823.00
2018-11-06T01:40:53.146Z,98813.00
2018-11-06T01:43:22.252Z,98815.00
2018-11-06T01:45:51.497Z,98824.00
2018-11-06T01:48:20.716Z,98818.00
2018-11-06T01:50:49.932Z,98813.00
2018-11-06T01:53:19.039Z,98799.00
2018-11-06T01:55:48.221Z,98797.00
2018-11-06T01:58:17.444Z,98798.00
2018-11-06T02:00:47.568Z,98809.00
2018-11-06T02:03:16.925Z,98806.00
2018-11-06T02:05:46.037Z,98804.00
2018-11-06T02:08:15.978Z,98797.00
2018-11-06T02:10:45.107Z,98799.00
2018-11-06T02:13:14.486Z,98805.00
2018-11-06T02:15:43.745Z,98809.00
2018-11-06T02:18:13.032Z,98810.00
2018-11-06T02:20:42.588Z,98812.00
2018-11-06T02:23:11.870Z,98807.00
2018-11-06T02:25:41.092Z,98800.00
2018-11-06T02:28:11.444Z,98786.00
2018-11-06T02:30:40.719Z,98795.00
2018-11-06T02:33:09.791Z,98801.00
2018-11-06T02:35:38.972Z,98795.00
2018-11-06T02:38:08.046Z,98797.00
2018-11-06T02:40:37.817Z,98805.00
2018-11-06T02:43:06.876Z,98808.00
2018-11-06T02:45:36.017Z,98805.00
2018-11-06T02:48:05.599Z,98807.00
2018-11-06T02:50:34.773Z,98808.00
2018-11-06T02:53:03.968Z,98807.00
2018-11-06T02:55:33.189Z,98801.00
2018-11-06T02:58:02.409Z,98804.00
2018-11-06T03:00:31.564Z,98810.00
2018-11-06T03:03:01.278Z,98812.00
2018-11-06T03:05:30.369Z,98811.00
2018-11-06T03:07:59.556Z,98811.00
2018-11-06T03:10:28.749Z,98817.00
2018-11-06T03:12:57.816Z,98817.00
2018-11-06T03:15:26.875Z,98817.00
2018-11-06T03:17:55.999Z,98808.00
2018-11-06T03:20:25.278Z,98808.00
2018-11-06T03:22:54.536Z,98807.00
2018-11-06T03:25:23.677Z,98809.00
2018-11-06T03:27:52.819Z,98809.00
2018-11-06T03:30:22.137Z,98814.00
2018-11-06T03:32:51.235Z,98812.00
2018-11-06T03:35:20.505Z,98806.00
2018-11-06T03:37:49.765Z,98804.00
2018-11-06T03:40:18.949Z,98810.00
2018-11-06T03:42:48.173Z,98811.00
2018-11-06T03:45:17.383Z,98817.00
2018-11-06T03:47:46.440Z,98823.00
2018-11-06T03:50:15.575Z,98819.00
2018-11-06T03:52:45.433Z,98818.00
2018-11-06T03:55:14.592Z,98815.00
2018-11-06T03:57:44.065Z,98818.00
2018-11-06T04:00:14.489Z,98816.00
2018-11-06T04:02:44.323Z,98819.00
2018-11-06T04:05:14.080Z,98814.00
2018-11-06T04:07:43.181Z,98813.00
2018-11-06T04:10:12.948Z,98813.00
2018-11-06T04:12:42.491Z,98817.00
2018-11-06T04:15:13.228Z,98816.00
2018-11-06T04:17:43.442Z,98812.00
2018-11-06T04:20:12.552Z,98806.00
2018-11-06T04:22:42.304Z,98794.00
2018-11-06T04:25:11.504Z,98792.00
2018-11-06T04:27:40.732Z,98787.00
2018-11-06T04:30:12.321Z,98777.00
2018-11-06T04:32:42.342Z,98777.00
2018-11-06T04:35:11.951Z,98784.00
2018-11-06T04:37:42.565Z,98788.00
2018-11-06T04:40:13.533Z,98796.00
2018-11-06T04:42:42.889Z,98793.00
2018-11-06T04:45:13.589Z,98789.00
2018-11-06T04:47:43.182Z,98791.00
2018-11-06T04:50:13.286Z,98788.00
2018-11-06T04:52:42.534Z,98784.00
2018-11-06T04:55:12.836Z,98785.00
2018-11-06T04:57:42.386Z,98793.00
2018-11-06T05:00:15.531Z,98794.00
2018-11-06T05:02:44.858Z,98788.00
2018-11-06T05:05:14.199Z,98785.00
2018-11-06T05:07:44.236Z,98783.00
2018-11-06T05:10:14.556Z,98787.00
2018-11-06T05:12:44.167Z,98797.00
2018-11-06T05:15:14.639Z,98800.00
2018-11-06T05:17:43.841Z,98801.00
2018-11-06T05:20:17.823Z,98803.00
2018-11-06T05:22:47.490Z,98800.00
2018-11-06T05:25:16.809Z,98805.00
2018-11-06T05:27:45.997Z,98800.00
2018-11-06T05:30:15.048Z,98806.00
2018-11-06T05:32:45.078Z,98808.00
2018-11-06T05:35:14.594Z,98805.00
2018-11-06T05:37:43.912Z,98807.00
2018-11-06T05:40:30.312Z,98809.00
2018-11-06T05:42:59.457Z,98813.00
2018-11-06T05:45:29.658Z,98808.00
2018-11-06T05:47:59.278Z,98815.00
2018-11-06T05:50:28.933Z,98816.00
2018-11-06T05:52:58.845Z,98820.00
2018-11-06T05:55:28.735Z,98822.00
2018-11-06T05:57:59.399Z,98827.00
2018-11-06T06:00:29.008Z,98829.00
2018-11-06T06:02:58.343Z,98835.00
2018-11-06T06:05:28.097Z,98831.00
2018-11-06T06:07:57.210Z,98829.00
2018-11-06T06:10:27.090Z,98825.00
2018-11-06T06:12:56.564Z,98828.00
2018-11-06T06:15:27.961Z,98835.00
2018-11-06T06:17:57.498Z,98844.00
2018-11-06T06:20:27.474Z,98850.00
2018-11-06T06:22:57.124Z,98857.00
2018-11-06T06:25:26.261Z,98850.00
2018-11-06T06:27:56.083Z,98850.00
2018-11-06T06:30:25.230Z,98856.00
2018-11-06T06:32:54.519Z,98859.00
2018-11-06T06:35:23.668Z,98867.00
2018-11-06T06:37:53.266Z,98869.00
2018-11-06T06:40:22.517Z,98880.00
2018-11-06T06:42:51.702Z,98882.00
2018-11-06T06:45:21.057Z,98897.00
2018-11-06T06:47:50.867Z,98902.00
2018-11-06T06:50:21.365Z,98909.00
2018-11-06T06:52:50.829Z,98902.00
2018-11-06T06:55:20.117Z,98899.00
2018-11-06T06:57:49.699Z,98890.00
2018-11-06T07:00:23.181Z,98884.00
2018-11-06T07:02:52.972Z,98889.00
2018-11-06T07:05:23.687Z,98881.00
2018-11-06T07:07:53.281Z,98895.00
2018-11-06T07:10:23.373Z,98898.00
2018-11-06T07:12:52.994Z,98904.00
2018-11-06T07:15:22.913Z,98905.00
2018-11-06T07:17:53.209Z,98909.00
2018-11-06T07:20:24.168Z,98915.00
2018-11-06T07:22:53.812Z,98906.00
2018-11-06T07:25:23.078Z,98911.00
2018-11-06T07:27:52.478Z,98901.00
2018-11-06T07:30:23.832Z,98906.00
2018-11-06T07:32:53.063Z,98900.00
2018-11-06T07:35:24.566Z,98901.00
2018-11-06T07:37:54.664Z,98904.00
2018-11-06T07:40:24.114Z,98906.00
2018-11-06T07:42:53.902Z,98916.00
2018-11-06T07:45:23.331Z,98921.00
2018-11-06T07:47:53.123Z,98921.00
2018-11-06T07:50:22.495Z,98914.00
2018-11-06T07:52:51.672Z,98925.00
2018-11-06T07:55:20.712Z,98920.00
2018-11-06T07:57:49.919Z,98922.00
2018-11-06T08:00:24.931Z,98914.00
2018-11-06T08:02:54.628Z,98909.00
2018-11-06T08:05:24.029Z,98901.00
2018-11-06T08:07:54.429Z,98903.00
2018-11-06T08:10:25.467Z,98906.00
2018-11-06T08:12:55.470Z,98912.00
2018-11-06T08:15:24.824Z,98919.00
2018-11-06T08:17:54.185Z,98916.00
2018-11-06T08:20:24.859Z,98920.00
2018-11-06T08:22:53.950Z,98919.00
2018-11-06T08:25:22.985Z,98919.00
2018-11-06T08:27:52.419Z,98916.00
2018-11-06T08:30:21.314Z,98921.00
2018-11-06T08:32:51.480Z,98910.00
2018-11-06T08:35:20.716Z,98906.00
2018-11-06T08:37:49.900Z,98901.00
2018-11-06T08:40:20.307Z,98912.00
2018-11-06T08:42:49.747Z,98918.00
2018-11-06T08:45:19.485Z,98920.00
2018-11-06T08:47:49.660Z,98907.00
2018-11-06T08:50:20.032Z,98908.00
2018-11-06T08:52:49.763Z,98910.00
2018-11-06T08:55:19.247Z,98908.00
2018-11-06T08:57:48.865Z,98921.00
2018-11-06T09:00:19.197Z,98918.00
2018-11-06T09:02:49.658Z,98920.00
2018-11-06T09:05:19.760Z,98914.00
2018-11-06T09:07:49.610Z,98921.00
2018-11-06T09:10:19.761Z,98919.00
2018-11-06T09:12:49.685Z,98918.00
2018-11-06T09:15:18.878Z,98914.00
2018-11-06T09:17:47.934Z,98911.00
2018-11-06T09:20:17.471Z,98911.00
2018-11-06T09:22:46.531Z,98917.00
2018-11-06T09:25:17.861Z,98914.00
2018-11-06T09:27:49.881Z,98906.00
2018-11-06T09:30:20.773Z,98900.00
2018-11-06T09:32:50.661Z,98903.00
2018-11-06T09:35:20.097Z,98901.00
2018-11-06T09:37:49.541Z,98899.00
2018-11-06T09:40:20.043Z,98900.00
2018-11-06T09:42:49.552Z,98895.00
2018-11-06T09:45:19.162Z,98902.00
2018-11-06T09:47:49.834Z,98897.00
2018-11-06T09:50:19.967Z,98898.00
2018-11-06T09:52:49.065Z,98890.00
2018-11-06T09:55:18.883Z,98889.00
2018-11-06T09:57:48.271Z,98881.00
2018-11-06T10:00:19.707Z,98879.00
2018-11-06T10:02:49.330Z,98880.00
2018-11-06T10:05:18.449Z,98881.00
2018-11-06T10:07:47.576Z,98875.00
2018-11-06T10:10:17.764Z,98870.00
2018-11-06T10:12:47.383Z,98871.00
2018-11-06T10:15:19.167Z,98867.00
2018-11-06T10:17:49.557Z,98870.00
2018-11-06T10:20:19.795Z,98868.00
2018-11-06T10:22:49.132Z,98859.00
2018-11-06T10:25:19.152Z,98854.00
2018-11-06T10:27:49.302Z,98855.00
2018-11-06T10:30:19.733Z,98847.00
2018-11-06T10:35:26.506Z,98845.00
2018-11-06T10:37:56.724Z,98845.00
2018-11-06T10:40:26.534Z,98844.00
2018-11-06T10:42:56.250Z,98844.00
2018-11-06T10:45:25.395Z,98838.00
2018-11-06T10:47:54.846Z,98842.00
2018-11-06T10:50:27.464Z,98836.00
2018-11-06T10:52:57.241Z,98836.00
2018-11-06T11:00:29.659Z,98835.00
2018-11-06T11:03:04.126Z,98825.00
2018-11-06T11:05:33.196Z,98817.00
2018-11-06T11:08:02.296Z,98819.00
2018-11-06T11:10:31.457Z,98808.00
2018-11-06T11:13:00.620Z,98805.00
2018-11-06T11:15:29.794Z,98803.00
2018-11-06T11:17:59.312Z,98805.00
2018-11-06T11:20:29.471Z,98802.00
2018-11-06T11:22:58.610Z,98803.00
2018-11-06T11:25:27.896Z,98796.00
2018-11-06T11:27:56.988Z,98792.00
2018-11-06T11:30:26.121Z,98796.00
2018-11-06T11:32:55.352Z,98799.00
2018-11-06T11:35:24.375Z,98798.00
2018-11-06T11:37:53.468Z,98798.00
2018-11-06T11:40:22.533Z,98791.00
2018-11-06T11:42:51.761Z,98792.00
2018-11-06T11:45:21.120Z,98790.00
2018-11-06T11:47:50.418Z,98784.00
2018-11-06T11:50:19.622Z,98793.00
2018-11-06T11:52:49.145Z,98783.00
2018-11-06T11:55:18.567Z,98781.00
2018-11-06T11:57:47.827Z,98777.00
2018-11-06T12:00:19.424Z,98772.00
2018-11-06T12:02:48.608Z,98775.00
2018-11-06T12:05:17.925Z,98770.00
2018-11-06T12:07:47.250Z,98773.00
2018-11-06T12:10:16.495Z,98770.00
2018-11-06T12:12:45.713Z,98766.00
2018-11-06T12:15:17.441Z,98769.00
2018-11-06T12:17:47.385Z,98759.00
2018-11-06T12:20:17.045Z,98754.00
2018-11-06T12:22:46.590Z,98756.00
2018-11-06T12:25:15.954Z,98750.00
2018-11-06T12:27:44.959Z,98759.00
2018-11-06T12:30:15.892Z,98752.00
2018-11-06T12:32:45.775Z,98760.00
2018-11-06T12:35:15.530Z,98761.00
2018-11-06T12:37:44.669Z,98755.00
2018-11-06T12:40:14.922Z,98753.00
2018-11-06T12:42:44.226Z,98754.00
2018-11-06T12:45:15.930Z,98746.00
2018-11-06T12:47:45.893Z,98744.00
2018-11-06T12:50:15.778Z,98744.00
2018-11-06T12:52:45.130Z,98742.00
2018-11-06T12:55:15.539Z,98736.00
2018-11-06T12:57:44.808Z,98739.00
2018-11-06T13:00:16.965Z,98738.00
2018-11-06T13:02:46.349Z,98734.00
2018-11-06T13:05:16.641Z,98737.00
2018-11-06T13:07:46.553Z,98726.00
2018-11-06T13:10:16.403Z,98732.00
2018-11-06T13:12:45.874Z,98722.00
2018-11-06T13:15:15.715Z,98724.00
2018-11-06T13:17:44.524Z,98719.00
2018-11-06T13:20:15.904Z,98715.00
2018-11-06T13:22:45.819Z,98712.00
2018-11-06T13:25:15.694Z,98715.00
2018-11-06T13:27:45.819Z,98718.00
2018-11-06T13:30:16.681Z,98717.00
2018-11-06T13:32:46.920Z,98715.00
2018-11-06T13:35:16.603Z,98709.00
2018-11-06T13:37:45.852Z,98709.00
2018-11-06T13:40:16.343Z,98703.00
2018-11-06T13:42:46.501Z,98702.00
2018-11-06T13:45:20.305Z,98699.00
2018-11-06T13:47:49.425Z,98707.00
2018-11-06T13:50:18.837Z,98708.00
2018-11-06T13:52:48.008Z,98712.00
2018-11-06T13:55:17.579Z,98713.00
2018-11-06T13:57:47.462Z,98710.00
2018-11-06T14:00:21.116Z,98709.00
2018-11-06T14:02:50.650Z,98708.00
2018-11-06T14:05:20.145Z,98708.00
2018-11-06T14:07:49.248Z,98708.00
2018-11-06T14:10:18.470Z,98705.00
2018-11-06T14:12:47.560Z,98707.00
2018-11-06T14:15:16.783Z,98709.00
2018-11-06T14:17:46.276Z,98707.00
2018-11-06T14:20:16.225Z,98704.00
2018-11-06T14:22:46.291Z,98705.00
2018-11-06T14:25:15.935Z,98701.00
2018-11-06T14:27:46.632Z,98707.00
2018-11-06T14:30:18.046Z,98709.00
2018-11-06T14:32:48.023Z,98711.00
2018-11-06T14:35:18.244Z,98707.00
2018-11-06T14:37:48.871Z,98709.00
2018-11-06T14:40:18.378Z,98711.00
2018-11-06T14:42:47.974Z,98710.00
2018-11-06T14:45:18.313Z,98710.00
2018-11-06T14:47:48.602Z,98713.00
2018-11-06T14:50:17.864Z,98713.00
2018-11-06T14:52:47.122Z,98714.00
2018-11-06T14:55:17.013Z,98710.00
2018-11-06T14:57:46.103Z,98703.00
2018-11-06T15:00:16.582Z,98711.00
2018-11-06T15:02:47.053Z,98714.00
2018-11-06T15:05:18.295Z,98712.00
2018-11-06T15:07:49.083Z,98713.00
2018-11-06T15:10:18.634Z,98712.00
2018-11-06T15:12:47.950Z,98715.00
2018-11-06T15:15:17.738Z,98717.00
2018-11-06T15:17:48.071Z,98720.00
2018-11-06T15:20:18.849Z,98721.00
2018-11-06T15:22:48.325Z,98724.00
2018-11-06T15:25:18.379Z,98723.00
2018-11-06T15:27:47.819Z,98718.00
2018-11-06T15:30:18.137Z,98724.00
2018-11-06T15:32:47.345Z,98715.00
2018-11-06T15:35:18.823Z,98716.00
2018-11-06T15:37:48.220Z,98711.00
2018-11-06T15:40:19.728Z,98720.00
2018-11-06T15:42:49.006Z,98721.00
2018-11-06T15:45:19.664Z,98721.00
2018-11-06T15:47:49.759Z,98712.00
2018-11-06T15:50:20.366Z,98708.00
2018-11-06T15:52:50.833Z,98715.00
2018-11-06T15:55:20.138Z,98712.00
2018-11-06T15:57:49.381Z,98715.00
2018-11-06T16:00:21.464Z,98716.00
2018-11-06T16:02:50.925Z,98731.00
2018-11-06T16:05:20.088Z,98737.00
2018-11-06T16:07:49.997Z,98742.00
2018-11-06T16:10:20.845Z,98736.00
2018-11-06T16:12:50.188Z,98743.00
2018-11-06T16:15:19.612Z,98750.00
2018-11-06T16:17:49.063Z,98745.00
2018-11-06T16:20:19.600Z,98742.00
2018-11-06T16:22:49.064Z,98737.00
2018-11-06T16:25:19.053Z,98737.00
2018-11-06T16:27:48.571Z,98742.00
2018-11-06T16:30:19.297Z,98746.00
2018-11-06T16:32:48.409Z,98745.00
2018-11-06T16:35:19.072Z,98746.00
2018-11-06T16:37:48.508Z,98744.00
2018-11-06T16:40:17.853Z,98753.00
2018-11-06T16:42:47.557Z,98764.00
2018-11-06T16:45:19.228Z,98760.00
2018-11-06T16:47:49.193Z,98761.00
2018-11-06T16:50:19.709Z,98765.00
2018-11-06T16:52:48.792Z,98770.00
2018-11-06T16:55:18.688Z,98780.00
2018-11-06T16:57:47.735Z,98783.00
2018-11-06T17:00:19.746Z,98782.00
2018-11-06T17:02:48.685Z,98792.00
2018-11-06T17:05:17.719Z,98789.00
2018-11-06T17:07:47.185Z,98786.00
2018-11-06T17:10:17.244Z,98793.00
2018-11-06T17:12:47.007Z,98794.00
2018-11-06T17:15:19.582Z,98796.00
2018-11-06T17:17:50.021Z,98806.00
2018-11-06T17:20:19.718Z,98805.00
2018-11-06T17:22:49.277Z,98802.00
2018-11-06T17:25:21.418Z,98805.00
2018-11-06T17:27:51.088Z,98808.00
2018-11-06T17:30:22.236Z,98821.00
2018-11-06T17:32:52.730Z,98819.00
2018-11-06T17:38:22.944Z,98832.00
2018-11-06T17:40:52.477Z,98830.00
2018-11-06T17:43:22.131Z,98824.00
2018-11-06T17:45:51.428Z,98824.00
2018-11-06T17:48:20.916Z,98815.00
2018-11-06T17:50:51.307Z,98814.00
2018-11-06T17:53:24.005Z,98815.00
2018-11-06T17:55:53.897Z,98822.00
2018-11-06T17:58:23.361Z,98821.00
2018-11-06T18:00:52.766Z,98819.00
2018-11-06T18:03:24.490Z,98814.00
2018-11-06T18:05:53.883Z,98817.00
2018-11-06T18:08:23.719Z,98825.00
2018-11-06T18:10:53.721Z,98826.00
2018-11-06T18:13:26.136Z,98830.00
2018-11-06T18:15:56.137Z,98833.00
2018-11-06T18:18:25.765Z,98831.00
2018-11-06T18:20:55.060Z,98832.00
2018-11-06T18:23:25.644Z,98826.00
2018-11-06T18:25:55.365Z,98828.00
2018-11-06T18:28:27.297Z,98822.00
2018-11-06T18:30:57.037Z,98831.00
2018-11-06T18:33:28.902Z,98831.00
2018-11-06T18:35:58.339Z,98821.00
2018-11-06T18:38:29.728Z,98825.00
2018-11-06T18:40:59.261Z,98827.00
2018-11-06T18:43:33.047Z,98827.00
2018-11-06T18:46:02.579Z,98829.00
2018-11-06T18:48:32.034Z,98835.00
2018-11-06T18:51:03.405Z,98831.00
2018-11-06T18:53:33.234Z,98831.00
2018-11-06T18:56:02.945Z,98838.00
2018-11-06T18:58:32.420Z,98846.00
2018-11-06T19:01:02.181Z,98846.00
2018-11-06T19:03:34.648Z,98844.00
2018-11-06T19:06:04.279Z,98847.00
2018-11-06T19:08:34.038Z,98855.00
2018-11-06T19:11:03.758Z,98854.00
2018-11-06T19:13:33.164Z,98857.00
2018-11-06T19:16:03.382Z,98852.00
2018-11-06T19:18:32.692Z,98850.00
2018-11-06T19:21:02.385Z,98854.00
2018-11-06T19:23:32.200Z,98848.00
2018-11-06T19:26:02.027Z,98852.00
2018-11-06T19:28:31.490Z,98856.00
2018-11-06T19:31:00.805Z,98852.00
2018-11-06T19:33:32.051Z,98846.00
2018-11-06T19:36:02.136Z,98851.00
2018-11-06T19:38:33.090Z,98848.00
2018-11-06T19:41:03.676Z,98848.00
2018-11-06T19:43:34.602Z,98841.00
2018-11-06T19:46:07.288Z,98834.00
2018-11-06T19:48:37.066Z,98837.00
2018-11-06T19:51:06.302Z,98834.00
2018-11-06T19:53:36.541Z,98835.00
2018-11-06T19:56:06.154Z,98834.00
2018-11-06T19:58:35.420Z,98835.00
2018-11-06T20:01:04.854Z,98845.00
2018-11-06T20:03:37.238Z,98844.00
2018-11-06T20:06:06.778Z,98840.00
2018-11-06T20:08:36.859Z,98844.00
2018-11-06T20:11:06.534Z,98845.00
2018-11-06T20:13:36.006Z,98848.00
2018-11-06T20:16:07.372Z,98855.00
2018-11-06T20:18:37.045Z,98860.00
2018-11-06T20:23:47.310Z,98856.00
2018-11-06T20:26:16.365Z,98858.00
2018-11-06T20:28:45.591Z,98864.00
2018-11-06T20:31:14.823Z,98867.00
2018-11-06T20:33:44.172Z,98868.00
2018-11-06T20:36:14.723Z,98878.00
2018-11-06T20:38:44.272Z,98874.00
2018-11-06T20:41:13.524Z,98874.00
2018-11-06T20:43:42.665Z,98870.00
2018-11-06T20:46:12.482Z,98884.00
2018-11-06T20:48:42.923Z,98886.00
2018-11-06T20:51:13.101Z,98874.00
2018-11-06T20:53:42.466Z,98874.00
2018-11-06T20:56:11.792Z,98877.00
2018-11-06T20:58:41.091Z,98875.00
2018-11-06T21:01:10.265Z,98873.00
2018-11-06T21:03:39.494Z,98880.00
2018-11-06T21:06:08.669Z,98884.00
2018-11-06T21:08:38.197Z,98892.00
2018-11-06T21:11:07.513Z,98896.00
2018-11-06T21:13:36.669Z,98904.00
2018-11-06T21:16:06.343Z,98905.00
2018-11-06T21:18:36.075Z,98898.00
2018-11-06T21:21:05.724Z,98897.00
2018-11-06T21:23:35.020Z,98893.00
2018-11-06T21:26:04.384Z,98899.00
2018-11-06T21:28:35.625Z,98898.00
2018-11-06T21:31:04.656Z,98899.00
2018-11-06T21:33:33.869Z,98905.00
2018-11-06T21:36:06.273Z,98908.00
2018-11-06T21:38:35.440Z,98903.00
2018-11-06T21:41:04.818Z,98908.00
2018-11-06T21:43:33.993Z,98896.00
2018-11-06T21:46:05.146Z,98893.00
2018-11-06T21:48:34.333Z,98895.00
2018-11-06T21:51:04.303Z,98897.00
2018-11-06T21:53:33.726Z,98893.00
2018-11-06T21:58:47.811Z,98899.00
2018-11-06T22:01:17.334Z,98898.00
2018-11-06T22:03:46.929Z,98900.00
2018-11-06T22:06:17.168Z,98902.00
2018-11-06T22:08:46.228Z,98905.00
2018-11-06T22:11:15.299Z,98899.00
2018-11-06T22:13:45.298Z,98903.00
2018-11-06T22:16:14.846Z,98899.00
2018-11-06T22:18:44.016Z,98898.00
2018-11-06T22:21:13.473Z,98894.00
2018-11-06T22:23:42.662Z,98891.00
2018-11-06T22:26:12.169Z,98894.00
2018-11-06T22:28:41.336Z,98900.00
2018-11-06T22:31:10.531Z,98905.00
2018-11-06T22:33:39.716Z,98896.00
2018-11-06T22:36:08.847Z,98899.00
2018-11-06T22:38:37.862Z,98906.00
2018-11-06T22:41:07.240Z,98903.00
2018-11-06T22:43:36.329Z,98903.00
2018-11-06T22:46:05.670Z,98899.00
2018-11-06T22:48:34.947Z,98904.00
2018-11-06T22:51:03.924Z,98903.00
2018-11-06T22:53:33.271Z,98899.00
2018-11-06T22:56:03.715Z,98895.00
2018-11-06T22:58:32.867Z,98891.00
2018-11-06T23:01:07.570Z,98893.00
2018-11-06T23:03:36.675Z,98895.00
2018-11-06T23:06:05.962Z,98887.00
2018-11-06T23:08:34.917Z,98892.00
2018-11-06T23:11:04.552Z,98894.00
2018-11-06T23:13:34.116Z,98894.00
2018-11-06T23:16:03.309Z,98898.00
2018-11-06T23:18:32.985Z,98899.00
2018-11-06T23:21:02.460Z,98894.00
2018-11-06T23:23:31.986Z,98892.00
2018-11-06T23:26:01.214Z,98895.00
2018-11-06T23:28:30.562Z,98897.00
2018-11-06T23:30:59.680Z,98898.00
2018-11-06T23:33:28.865Z,98908.00
2018-11-06T23:35:57.951Z,98914.00
2018-11-06T23:38:27.100Z,98916.00
2018-11-06T23:40:56.339Z,98916.00
2018-11-06T23:43:25.755Z,98922.00
2018-11-06T23:45:54.937Z,98922.00
2018-11-06T23:48:24.054Z,98923.00
2018-11-06T23:50:53.666Z,98923.00
2018-11-06T23:53:22.681Z,98926.00
2018-11-06T23:55:51.749Z,98925.00
2018-11-06T23:58:21.410Z,98927.00
